createdAt,value
2022-10-12T00:00:19.483Z,17.87
2022-10-12T00:02:46.880Z,17.70
2022-10-12T00:05:14.304Z,17.73
2022-10-12T00:07:43.091Z,16.50
2022-10-12T00:10:10.502Z,16.73
2022-10-12T00:12:37.888Z,15.90
2022-10-12T00:15:06.206Z,15.70
2022-10-12T00:17:33.628Z,16.70
2022-10-12T00:20:01.049Z,15.77
2022-10-12T00:22:28.467Z,16.43
2022-10-12T00:24:57.174Z,15.03
2022-10-12T00:27:24.733Z,14.10
2022-10-12T00:29:52.161Z,15.07
2022-10-12T00:32:20.224Z,14.83
2022-10-12T00:34:47.594Z,15.13
2022-10-12T00:37:14.992Z,14.17
2022-10-12T00:39:42.363Z,13.90
2022-10-12T00:42:13.396Z,13.17
2022-10-12T00:44:44.500Z,13.20
2022-10-12T00:47:19.547Z,13.57
2022-10-12T00:49:51.264Z,12.43
2022-10-12T00:52:24.095Z,14.37
2022-10-12T00:54:54.627Z,13.83
2022-10-12T00:57:24.434Z,13.73
2022-10-12T00:59:56.644Z,15.27
2022-10-12T01:02:26.925Z,18.73
2022-10-12T01:04:54.835Z,23.53
2022-10-12T01:07:22.234Z,17.77
2022-10-12T01:09:49.978Z,18.83
2022-10-12T01:12:18.319Z,19.10
2022-10-12T01:14:47.132Z,16.50
2022-10-12T01:17:24.106Z,16.63
2022-10-12T01:20:07.577Z,18.57
2022-10-12T01:22:43.000Z,18.67
2022-10-12T01:25:22.874Z,15.33
2022-10-12T01:27:53.867Z,12.90
2022-10-12T01:30:23.969Z,12.20
2022-10-12T01:33:06.740Z,13.03
2022-10-12T01:35:40.723Z,14.17
2022-10-12T01:38:18.884Z,12.20
2022-10-12T01:40:54.853Z,12.87
2022-10-12T01:43:23.559Z,12.73
2022-10-12T01:45:52.329Z,12.63
2022-10-12T01:48:19.865Z,11.27
2022-10-12T01:50:50.838Z,11.77
2022-10-12T01:53:32.363Z,11.07
2022-10-12T01:56:08.868Z,10.30
2022-10-12T01:58:50.748Z,10.40
2022-10-12T02:01:26.212Z,9.77
2022-10-12T02:04:01.928Z,14.47
2022-10-12T02:06:33.751Z,10.33
2022-10-12T02:09:06.973Z,10.43
2022-10-12T02:11:38.409Z,10.00
2022-10-12T02:14:10.117Z,9.37
2022-10-12T02:16:43.053Z,9.37
2022-10-12T02:19:14.469Z,9.70
2022-10-12T02:21:42.235Z,9.27
2022-10-12T02:24:12.566Z,9.97
2022-10-12T02:26:43.627Z,10.83
2022-10-12T02:29:14.495Z,11.00
2022-10-12T02:31:52.147Z,11.40
2022-10-12T02:34:24.572Z,10.00
2022-10-12T02:36:57.704Z,11.17
2022-10-12T02:39:31.186Z,10.53
2022-10-12T02:42:04.854Z,10.03
2022-10-12T02:44:35.573Z,10.37
2022-10-12T02:47:07.924Z,10.63
2022-10-12T02:49:36.976Z,10.77
2022-10-12T02:52:06.700Z,9.43
2022-10-12T02:54:34.422Z,10.00
2022-10-12T02:57:01.888Z,10.10
2022-10-12T02:59:29.428Z,10.80
2022-10-12T03:01:56.837Z,10.10
2022-10-12T03:04:25.611Z,9.73
2022-10-12T03:06:53.056Z,10.17
2022-10-12T03:09:20.753Z,9.77
2022-10-12T03:11:48.245Z,9.97
2022-10-12T03:14:16.803Z,9.80
2022-10-12T03:16:46.462Z,10.00
2022-10-12T03:19:14.124Z,10.27
2022-10-12T03:21:42.850Z,9.13
2022-10-12T03:24:10.305Z,8.17
2022-10-12T03:26:37.754Z,10.30
2022-10-12T03:29:05.459Z,10.00
2022-10-12T03:31:32.857Z,10.03
2022-10-12T03:34:00.499Z,9.07
2022-10-12T03:36:27.940Z,8.43
2022-10-12T03:38:56.672Z,8.67
2022-10-12T03:41:24.073Z,8.60
2022-10-12T03:43:51.637Z,8.80
2022-10-12T03:46:19.051Z,9.00
2022-10-12T03:48:46.464Z,7.73
2022-10-12T03:51:13.964Z,7.80
2022-10-12T03:53:45.429Z,8.50
2022-10-12T03:56:14.527Z,7.23
2022-10-12T03:58:41.936Z,7.93
2022-10-12T04:01:09.367Z,8.20
2022-10-12T04:03:36.786Z,7.97
2022-10-12T04:06:04.725Z,10.07
2022-10-12T04:08:32.137Z,9.03
2022-10-12T04:10:59.586Z,8.00
2022-10-12T04:13:28.306Z,8.00
2022-10-12T04:15:55.696Z,7.57
2022-10-12T04:18:23.142Z,8.10
2022-10-12T04:20:50.917Z,7.97
2022-10-12T04:23:18.307Z,8.37
2022-10-12T04:25:45.659Z,11.20
2022-10-12T04:28:13.418Z,8.13
2022-10-12T04:30:42.189Z,8.70
2022-10-12T04:33:09.605Z,8.17
2022-10-12T04:35:37.203Z,8.10
2022-10-12T04:38:05.117Z,7.80
2022-10-12T04:40:32.552Z,6.40
2022-10-12T04:42:59.961Z,7.70
2022-10-12T04:45:27.425Z,9.43
2022-10-12T04:47:56.243Z,8.77
2022-10-12T04:50:29.724Z,8.97
2022-10-12T04:52:57.481Z,9.83
2022-10-12T04:55:25.075Z,11.27
2022-10-12T04:57:52.448Z,12.40
2022-10-12T05:00:19.863Z,12.83
2022-10-12T05:02:47.757Z,15.43
2022-10-12T05:05:16.633Z,14.87
2022-10-12T05:07:44.084Z,14.67
2022-10-12T05:10:11.741Z,13.27
2022-10-12T05:12:39.471Z,11.30
2022-10-12T05:15:08.249Z,11.43
2022-10-12T05:17:35.708Z,14.10
2022-10-12T05:20:03.305Z,13.07
2022-10-12T05:22:32.270Z,13.73
2022-10-12T05:24:59.671Z,13.20
2022-10-12T05:27:27.128Z,10.70
2022-10-12T05:29:54.668Z,10.57
2022-10-12T05:32:22.063Z,10.07
2022-10-12T05:34:49.472Z,9.00
2022-10-12T05:37:17.343Z,9.00
2022-10-12T05:39:46.672Z,8.30
2022-10-12T05:42:14.045Z,9.30
2022-10-12T05:44:41.422Z,8.43
2022-10-12T05:47:08.864Z,9.47
2022-10-12T05:49:36.304Z,8.67
2022-10-12T05:52:03.965Z,9.77
2022-10-12T05:54:31.399Z,9.83
2022-10-12T05:57:00.150Z,9.97
2022-10-12T05:59:27.546Z,9.07
2022-10-12T06:01:55.067Z,9.03
2022-10-12T06:04:22.489Z,9.70
2022-10-12T06:06:49.907Z,10.40
2022-10-12T06:09:17.357Z,10.10
2022-10-12T06:11:44.818Z,8.47
2022-10-12T06:14:15.168Z,9.40
2022-10-12T06:16:42.681Z,9.07
2022-10-12T06:19:11.755Z,8.87
2022-10-12T06:21:39.373Z,8.37
2022-10-12T06:24:07.321Z,9.73
2022-10-12T06:26:34.991Z,8.90
2022-10-12T06:29:02.374Z,8.07
2022-10-12T06:31:32.415Z,8.67
2022-10-12T06:33:59.848Z,8.43
2022-10-12T06:36:27.254Z,7.87
2022-10-12T06:38:55.173Z,8.33
2022-10-12T06:41:22.682Z,10.30
2022-10-12T06:43:50.071Z,10.77
2022-10-12T06:46:17.631Z,9.03
2022-10-12T06:48:46.404Z,8.57
2022-10-12T06:51:13.909Z,8.13
2022-10-12T06:53:41.284Z,8.40
2022-10-12T06:56:09.635Z,8.50
2022-10-12T06:58:37.385Z,11.13
2022-10-12T07:01:05.637Z,9.60
2022-10-12T07:03:33.104Z,8.97
2022-10-12T07:06:08.920Z,8.47
2022-10-12T07:08:36.328Z,8.43
2022-10-12T07:11:05.037Z,8.67
2022-10-12T07:13:32.722Z,8.83
2022-10-12T07:16:00.289Z,8.57
2022-10-12T07:18:27.806Z,8.93
2022-10-12T07:20:59.639Z,8.53
2022-10-12T07:23:28.491Z,8.27
2022-10-12T07:25:56.071Z,8.53
2022-10-12T07:28:23.572Z,9.00
2022-10-12T07:30:51.330Z,7.63
2022-10-12T07:33:18.793Z,7.70
2022-10-12T07:36:12.828Z,6.63
2022-10-12T07:38:44.992Z,7.50
2022-10-12T07:41:12.910Z,6.50
2022-10-12T07:43:40.340Z,7.63
2022-10-12T07:46:08.802Z,6.97
2022-10-12T07:48:36.316Z,7.47
2022-10-12T07:51:05.192Z,9.10
2022-10-12T07:53:34.832Z,7.03
2022-10-12T07:56:05.327Z,10.03
2022-10-12T07:58:32.998Z,7.77
2022-10-12T08:01:05.995Z,7.80
2022-10-12T08:03:33.455Z,8.17
2022-10-12T08:06:01.176Z,8.10
2022-10-12T08:08:28.599Z,7.20
2022-10-12T08:10:57.736Z,7.00
2022-10-12T08:13:26.470Z,7.50
2022-10-12T08:15:54.101Z,6.77
2022-10-12T08:18:21.590Z,5.80
2022-10-12T08:20:49.161Z,6.73
2022-10-12T08:23:16.612Z,5.93
2022-10-12T08:25:51.677Z,4.17
2022-10-12T08:28:19.142Z,4.40
2022-10-12T08:30:47.954Z,4.30
2022-10-12T08:33:15.936Z,5.37
2022-10-12T08:35:43.959Z,4.60
2022-10-12T08:38:13.225Z,5.27
2022-10-12T08:40:50.678Z,5.13
2022-10-12T08:43:29.197Z,4.87
2022-10-12T08:46:00.725Z,5.33
2022-10-12T08:48:32.541Z,5.77
2022-10-12T08:51:03.805Z,6.67
2022-10-12T08:53:36.445Z,6.57
2022-10-12T08:56:03.963Z,5.23
2022-10-12T08:58:34.047Z,5.40
2022-10-12T09:01:21.966Z,4.93
2022-10-12T09:04:02.534Z,4.93
2022-10-12T09:06:35.896Z,3.93
2022-10-12T09:09:09.875Z,4.77
2022-10-12T09:11:55.122Z,4.07
2022-10-12T09:14:27.754Z,3.83
2022-10-12T09:16:57.584Z,3.73
2022-10-12T09:19:33.326Z,4.13
2022-10-12T09:22:02.276Z,4.40
2022-10-12T09:24:35.523Z,4.27
2022-10-12T09:27:14.547Z,4.73
2022-10-12T09:29:42.876Z,6.40
2022-10-12T09:32:35.217Z,4.97
2022-10-12T09:35:04.849Z,4.30
2022-10-12T09:37:34.232Z,3.83
2022-10-12T09:40:02.159Z,3.77
2022-10-12T09:42:29.558Z,5.27
2022-10-12T09:45:00.313Z,4.67
2022-10-12T09:47:31.441Z,3.63
2022-10-12T09:50:01.062Z,3.83
2022-10-12T09:52:31.837Z,3.97
2022-10-12T09:55:05.216Z,3.90
2022-10-12T09:57:35.060Z,3.70
2022-10-12T10:00:06.360Z,2.93
2022-10-12T10:02:48.711Z,3.20
2022-10-12T10:05:25.131Z,4.10
2022-10-12T10:07:52.740Z,3.60
2022-10-12T10:10:28.273Z,3.00
2022-10-12T10:13:01.097Z,3.17
2022-10-12T10:15:31.243Z,2.80
2022-10-12T10:18:01.909Z,2.93
2022-10-12T10:20:32.810Z,3.27
2022-10-12T10:23:01.301Z,3.20
2022-10-12T10:25:29.043Z,3.50
2022-10-12T10:28:22.580Z,2.90
2022-10-12T10:30:59.060Z,2.87
2022-10-12T10:33:27.882Z,2.90
2022-10-12T10:36:00.313Z,2.83
2022-10-12T10:38:28.994Z,2.60
2022-10-12T10:40:58.066Z,2.50
2022-10-12T10:43:29.728Z,2.80
2022-10-12T10:45:59.921Z,2.63
2022-10-12T10:48:32.020Z,2.40
2022-10-12T10:51:02.296Z,2.50
2022-10-12T10:53:34.040Z,2.20
2022-10-12T10:56:06.486Z,2.00
2022-10-12T10:58:38.184Z,2.17
2022-10-12T11:01:16.452Z,2.13
2022-10-12T11:03:54.384Z,2.40
2022-10-12T11:06:29.661Z,1.93
2022-10-12T11:09:03.763Z,2.10
2022-10-12T11:11:36.007Z,3.10
2022-10-12T11:14:10.667Z,2.20
2022-10-12T11:16:44.598Z,2.07
2022-10-12T11:19:25.409Z,2.30
2022-10-12T11:21:57.452Z,1.77
2022-10-12T11:24:29.411Z,2.20
2022-10-12T11:27:02.758Z,1.83
2022-10-12T11:29:30.598Z,1.87
2022-10-12T11:32:04.057Z,2.20
2022-10-12T11:34:43.410Z,2.40
2022-10-12T11:37:20.316Z,2.53
2022-10-12T11:39:53.567Z,2.80
2022-10-12T11:42:32.004Z,2.00
2022-10-12T11:45:01.941Z,2.40
2022-10-12T11:47:35.433Z,2.10
2022-10-12T11:50:08.266Z,1.70
2022-10-12T11:52:41.702Z,2.20
2022-10-12T11:55:28.073Z,2.20
2022-10-12T11:58:00.044Z,2.27
2022-10-12T12:00:38.113Z,1.70
2022-10-12T12:03:19.873Z,2.47
2022-10-12T12:05:48.704Z,2.27
2022-10-12T12:08:24.172Z,1.97
2022-10-12T12:11:05.369Z,2.10
2022-10-12T12:13:34.993Z,1.80
2022-10-12T12:16:33.609Z,2.10
2022-10-12T12:19:16.030Z,2.30
2022-10-12T12:22:14.515Z,2.37
2022-10-12T12:24:53.347Z,2.13
2022-10-12T12:27:31.511Z,2.20
2022-10-12T12:30:01.172Z,1.70
2022-10-12T12:32:42.819Z,2.63
2022-10-12T12:35:21.057Z,2.30
2022-10-12T12:37:50.347Z,2.50
2022-10-12T12:40:24.541Z,2.43
2022-10-12T12:42:51.967Z,2.20
2022-10-12T12:45:41.985Z,3.63
2022-10-12T12:48:10.818Z,2.60
2022-10-12T12:50:41.633Z,2.87
2022-10-12T12:53:18.519Z,2.57
2022-10-12T12:56:03.487Z,3.13
2022-10-12T12:58:49.088Z,2.03
2022-10-12T13:01:45.349Z,2.43
2022-10-12T13:04:41.847Z,2.43
2022-10-12T13:07:34.824Z,2.57
2022-10-12T13:10:17.649Z,2.40
2022-10-12T13:13:02.592Z,3.87
2022-10-12T13:15:38.504Z,2.43
2022-10-12T13:18:47.352Z,2.77
2022-10-12T13:21:19.180Z,2.70
2022-10-12T13:23:49.234Z,2.40
2022-10-12T13:26:22.719Z,3.13
2022-10-12T13:28:50.744Z,2.90
2022-10-12T13:31:24.087Z,2.70
2022-10-12T13:34:00.385Z,2.90
2022-10-12T13:36:30.175Z,2.43
2022-10-12T13:38:59.528Z,2.40
2022-10-12T13:41:31.294Z,2.50
2022-10-12T13:44:00.648Z,2.10
2022-10-12T13:46:41.637Z,2.63
2022-10-12T13:49:17.834Z,10.27
2022-10-12T13:51:48.408Z,3.00
2022-10-12T13:54:18.601Z,6.20
2022-10-12T13:56:49.055Z,2.30
2022-10-12T13:59:19.792Z,2.33
2022-10-12T14:01:53.031Z,2.37
2022-10-12T14:04:20.821Z,2.00
2022-10-12T14:06:53.899Z,4.37
2022-10-12T14:09:25.062Z,2.90
2022-10-12T14:11:55.444Z,2.70
2022-10-12T14:14:29.336Z,2.40
2022-10-12T14:16:56.807Z,3.00
2022-10-12T14:19:34.363Z,5.00
2022-10-12T14:22:03.438Z,2.67
2022-10-12T14:24:31.616Z,2.10
2022-10-12T14:27:02.736Z,2.13
2022-10-12T14:29:35.710Z,2.10
2022-10-12T14:32:05.630Z,2.73
2022-10-12T14:34:42.400Z,3.87
2022-10-12T14:37:36.848Z,2.03
2022-10-12T14:40:35.476Z,1.80
2022-10-12T14:43:08.035Z,1.90
2022-10-12T14:45:35.509Z,1.70
2022-10-12T14:48:04.974Z,3.40
2022-10-12T14:50:33.296Z,2.90
2022-10-12T14:53:04.412Z,2.43
2022-10-12T14:55:34.983Z,2.17
2022-10-12T14:58:03.643Z,1.80
2022-10-12T15:00:34.878Z,2.17
2022-10-12T15:03:02.820Z,6.10
2022-10-12T15:05:32.520Z,3.30
2022-10-12T15:08:00.693Z,4.10
2022-10-12T15:10:29.167Z,3.47
2022-10-12T15:12:56.686Z,3.40
2022-10-12T15:15:31.450Z,3.73
2022-10-12T15:18:00.530Z,3.77
2022-10-12T15:20:29.658Z,3.00
2022-10-12T15:22:57.471Z,3.33
2022-10-12T15:25:29.060Z,3.37
2022-10-12T15:27:56.508Z,3.00
2022-10-12T15:30:23.894Z,2.63
2022-10-12T15:32:51.315Z,2.40
2022-10-12T15:35:23.857Z,4.27
2022-10-12T15:37:52.173Z,3.10
2022-10-12T15:40:21.513Z,2.97
2022-10-12T15:42:49.098Z,3.67
2022-10-12T15:45:19.788Z,3.53
2022-10-12T15:47:47.884Z,2.47
2022-10-12T15:50:16.339Z,2.40
2022-10-12T15:52:45.349Z,2.80
2022-10-12T15:55:16.700Z,2.70
2022-10-12T15:57:44.288Z,3.97
2022-10-12T16:00:13.384Z,3.53
2022-10-12T16:02:41.163Z,3.93
2022-10-12T16:05:17.519Z,3.13
2022-10-12T16:07:46.464Z,2.80
2022-10-12T16:10:15.362Z,3.20
2022-10-12T16:12:44.708Z,3.10
2022-10-12T16:15:13.692Z,3.13
2022-10-12T16:17:41.475Z,2.67
2022-10-12T16:20:10.724Z,3.57
2022-10-12T16:22:38.713Z,3.60
2022-10-12T16:25:10.255Z,3.40
2022-10-12T16:27:38.454Z,10.83
2022-10-12T16:30:07.636Z,24.80
2022-10-12T16:32:35.169Z,19.53
2022-10-12T16:35:02.736Z,28.73
2022-10-12T16:37:30.234Z,10.03
2022-10-12T16:39:57.802Z,25.37
2022-10-12T16:42:26.733Z,17.90
2022-10-12T16:44:54.137Z,6.43
2022-10-12T16:47:22.003Z,4.70
2022-10-12T16:49:49.492Z,7.93
2022-10-12T16:52:17.132Z,60.57
2022-10-12T16:54:44.716Z,53.47
2022-10-12T16:57:12.137Z,10.77
2022-10-12T16:59:40.862Z,5.40
2022-10-12T17:02:08.510Z,15.80
2022-10-12T17:04:35.956Z,7.30
2022-10-12T17:07:03.409Z,29.23
2022-10-12T17:09:30.967Z,39.77
2022-10-12T17:11:58.592Z,13.70
2022-10-12T17:14:26.091Z,8.33
2022-10-12T17:16:57.444Z,32.97
2022-10-12T17:19:31.848Z,41.53
2022-10-12T17:22:00.897Z,29.67
2022-10-12T17:24:30.327Z,29.73
2022-10-12T17:26:58.262Z,83.47
2022-10-12T17:29:27.902Z,83.73
2022-10-12T17:31:57.927Z,54.03
2022-10-12T17:34:27.242Z,23.37
2022-10-12T17:36:56.365Z,9.40
2022-10-12T17:39:25.060Z,7.20
2022-10-12T17:41:53.118Z,6.07
2022-10-12T17:44:20.826Z,4.90
2022-10-12T17:46:49.616Z,5.53
2022-10-12T17:49:24.474Z,5.00
2022-10-12T17:51:52.476Z,22.10
2022-10-12T17:54:20.921Z,11.60
2022-10-12T17:56:48.697Z,110.67
2022-10-12T17:59:19.151Z,32.80
2022-10-12T18:01:47.337Z,13.33
2022-10-12T18:04:14.892Z,9.50
2022-10-12T18:06:44.048Z,57.80
2022-10-12T18:09:11.951Z,427.83
2022-10-12T18:11:39.830Z,401.20
2022-10-12T18:14:09.772Z,50.43
2022-10-12T18:16:38.387Z,83.10
2022-10-12T18:19:07.674Z,40.43
2022-10-12T18:21:35.530Z,33.80
2022-10-12T18:24:07.336Z,18.03
2022-10-12T18:26:36.433Z,40.20
2022-10-12T18:29:05.145Z,18.57
2022-10-12T18:31:32.558Z,38.60
2022-10-12T18:33:59.974Z,38.80
2022-10-12T18:36:28.615Z,34.87
2022-10-12T18:38:56.127Z,43.67
2022-10-12T18:41:26.180Z,70.13
2022-10-12T18:43:57.763Z,46.30
2022-10-12T18:46:26.821Z,20.70
2022-10-12T18:48:54.369Z,17.13
2022-10-12T18:51:24.933Z,14.43
2022-10-12T18:53:52.340Z,47.87
2022-10-12T18:56:21.231Z,20.37
2022-10-12T18:58:50.228Z,16.93
2022-10-12T19:01:19.937Z,79.47
2022-10-12T19:03:48.127Z,18.97
2022-10-12T19:06:18.153Z,36.10
2022-10-12T19:08:47.587Z,91.10
2022-10-12T19:11:17.555Z,92.60
2022-10-12T19:13:45.695Z,45.43
2022-10-12T19:16:17.159Z,52.60
2022-10-12T19:18:44.644Z,141.37
2022-10-12T19:21:14.113Z,60.67
2022-10-12T19:23:42.231Z,35.93
2022-10-12T19:26:11.998Z,73.10
2022-10-12T19:28:39.796Z,18.70
2022-10-12T19:31:09.859Z,7.07
2022-10-12T19:33:39.120Z,9.17
2022-10-12T19:36:08.248Z,18.63
2022-10-12T19:38:35.952Z,21.50
2022-10-12T19:41:03.945Z,26.77
2022-10-12T19:43:33.287Z,63.97
2022-10-12T19:46:03.382Z,57.87
2022-10-12T19:48:30.897Z,60.47
2022-10-12T19:51:01.385Z,13.07
2022-10-12T19:53:29.233Z,25.13
2022-10-12T19:55:59.951Z,88.63
2022-10-12T19:58:27.473Z,24.90
2022-10-12T20:01:01.876Z,21.20
2022-10-12T20:03:29.631Z,17.63
2022-10-12T20:05:57.184Z,8.27
2022-10-12T20:08:25.945Z,7.30
2022-10-12T20:10:53.956Z,6.60
2022-10-12T20:13:21.598Z,6.17
2022-10-12T20:15:52.918Z,7.37
2022-10-12T20:18:20.812Z,7.17
2022-10-12T20:20:48.812Z,6.73
2022-10-12T20:23:16.584Z,7.47
2022-10-12T20:25:46.861Z,7.60
2022-10-12T20:28:14.619Z,7.27
2022-10-12T20:30:42.892Z,7.37
2022-10-12T20:33:11.181Z,8.40
2022-10-12T20:35:38.597Z,7.73
2022-10-12T20:38:06.013Z,7.37
2022-10-12T20:40:33.422Z,6.13
2022-10-12T20:43:06.235Z,7.50
2022-10-12T20:45:35.107Z,8.23
2022-10-12T20:48:02.574Z,8.93
2022-10-12T20:50:30.113Z,8.97
2022-10-12T20:53:00.954Z,9.03
2022-10-12T20:55:28.477Z,6.33
2022-10-12T20:57:56.195Z,10.53
2022-10-12T21:00:25.209Z,16.17
2022-10-12T21:02:52.698Z,6.10
2022-10-12T21:05:20.317Z,8.30
2022-10-12T21:07:47.957Z,8.03
2022-10-12T21:10:15.419Z,7.93
2022-10-12T21:12:42.834Z,8.67
2022-10-12T21:15:11.464Z,7.17
2022-10-12T21:17:40.176Z,7.30
2022-10-12T21:20:08.760Z,10.73
2022-10-12T21:22:36.202Z,14.17
2022-10-12T21:25:03.810Z,10.80
2022-10-12T21:27:31.312Z,9.37
2022-10-12T21:29:58.696Z,7.97
2022-10-12T21:32:26.170Z,9.80
2022-10-12T21:34:54.893Z,9.87
2022-10-12T21:37:22.485Z,18.13
2022-10-12T21:39:54.374Z,7.83
2022-10-12T21:42:22.044Z,8.97
2022-10-12T21:44:51.157Z,7.77
2022-10-12T21:47:18.637Z,7.03
2022-10-12T21:49:46.165Z,8.20
2022-10-12T21:52:15.056Z,7.30
2022-10-12T21:54:42.766Z,12.70
2022-10-12T21:57:11.359Z,13.87
2022-10-12T21:59:38.749Z,8.00
2022-10-12T22:02:06.307Z,7.27
2022-10-12T22:04:34.238Z,7.07
2022-10-12T22:07:01.621Z,9.20
2022-10-12T22:09:33.708Z,8.67
2022-10-12T22:12:01.097Z,9.63
2022-10-12T22:14:28.545Z,17.47
2022-10-12T22:16:56.029Z,10.57
2022-10-12T22:19:23.813Z,7.57
2022-10-12T22:21:52.692Z,6.83
2022-10-12T22:24:20.984Z,8.47
2022-10-12T22:26:50.067Z,9.67
2022-10-12T22:29:17.484Z,7.43
2022-10-12T22:31:46.307Z,7.53
2022-10-12T22:34:13.842Z,7.53
2022-10-12T22:36:41.347Z,8.00
2022-10-12T22:39:08.764Z,7.43
2022-10-12T22:41:36.165Z,9.30
2022-10-12T22:44:05.130Z,7.30
2022-10-12T22:46:32.578Z,7.77
2022-10-12T22:49:00.725Z,7.27
2022-10-12T22:51:31.930Z,31.83
2022-10-12T22:53:59.781Z,9.27
2022-10-12T22:56:27.255Z,7.37
2022-10-12T22:58:55.831Z,7.43
2022-10-12T23:01:25.181Z,14.23
2022-10-12T23:03:53.015Z,7.17
2022-10-12T23:06:20.943Z,8.20
2022-10-12T23:08:48.987Z,7.10
2022-10-12T23:11:18.749Z,6.77
2022-10-12T23:13:48.073Z,6.70
2022-10-12T23:16:18.131Z,7.23
2022-10-12T23:18:47.075Z,40.97
2022-10-12T23:21:16.473Z,8.77
2022-10-12T23:23:45.817Z,10.30
2022-10-12T23:26:14.998Z,8.00
2022-10-12T23:28:42.610Z,8.40
2022-10-12T23:31:12.190Z,7.70
2022-10-12T23:33:39.834Z,6.77
2022-10-12T23:36:10.939Z,6.67
2022-10-12T23:38:40.209Z,7.07
2022-10-12T23:41:08.089Z,6.90
2022-10-12T23:43:36.073Z,7.17
2022-10-12T23:46:04.389Z,7.63
2022-10-12T23:48:32.221Z,7.10
2022-10-12T23:50:59.725Z,6.83
2022-10-12T23:53:29.254Z,6.17
2022-10-12T23:55:56.799Z,6.90
2022-10-12T23:58:24.200Z,7.17
